Terminal Aerodrome Forecast
Issued by NWS

Home | Current Version | Previous Version | Text Only | Print | Product List | Glossary On
Versions: 1 2 3 4 5 6 7 8 9 10 11 12 13 14 15 16 17 18 19 20 21 22 23 24 25 26 27
000
FTUS45 KSLC 301120
TAFEVW
TAF
KEVW 301120Z 3012/3112 17010KT P6SM FEW100 BKN150
     FM301400 22010KT P6SM BKN080 BKN150
     FM301600 23016G28KT P6SM SCT080 BKN120
     FM302100 25020G34KT P6SM VCSH BKN080 BKN100
     FM310100 27010G16KT P6SM SCT080 BKN100
     FM310300 30009KT P6SM VCSH BKN080=

USA.gov is the U.S. government's official web portal to all federal, state and local government web resources and services.